Nearby METAR Reports

 

EBBR - Brussel National Airport
Distance from station: NNW 8.5km
Updated: 18/02/2018 08:50
Mist, Gedeeltelijk bewolkt
Mist, Gedeeltelijk bewolkt
 Wind van Z
Wind: Z 15 km/h
Temperatuur: 0°C
Wind Chill: -4°C
Dauwpunt: -2°C
Vochtigheid: 87%
Barometer: 1025 hPa
Overzicht: Mist
Clouds: Gedeeltelijk bewolkt
Visibility: 5 km
2018/02/18 07:50 EBBR 180750Z 18008KT 4500 BR NSC 00/M02 Q1025 BECMG 6000